createdAt,value
2023-02-25T00:00:34.662Z,1.00
2023-02-25T00:03:05.040Z,0.68
2023-02-25T00:05:35.470Z,0.70
2023-02-25T00:08:05.761Z,0.57
2023-02-25T00:10:36.961Z,0.80
2023-02-25T00:13:18.062Z,0.75
2023-02-25T00:15:48.914Z,0.50
2023-02-25T00:18:19.148Z,0.63
2023-02-25T00:20:49.397Z,0.90
2023-02-25T00:23:19.758Z,0.70
2023-02-25T00:25:50.501Z,0.80
2023-02-25T00:28:20.741Z,0.57
2023-02-25T00:30:51.271Z,0.57
2023-02-25T00:33:21.856Z,0.68
2023-02-25T00:35:52.297Z,0.75
2023-02-25T00:38:28.531Z,0.73
2023-02-25T00:40:58.732Z,0.50
2023-02-25T00:43:32.428Z,0.68
2023-02-25T00:46:02.656Z,0.70
2023-02-25T00:48:32.826Z,0.60
2023-02-25T00:51:15.215Z,0.50
2023-02-25T00:53:45.829Z,0.60
2023-02-25T00:56:18.443Z,0.60
2023-02-25T00:58:51.029Z,0.70
2023-02-25T01:01:28.654Z,0.63
2023-02-25T01:04:00.067Z,0.60
2023-02-25T01:06:31.837Z,0.57
2023-02-25T01:09:02.426Z,0.80
2023-02-25T01:11:36.123Z,0.80
2023-02-25T01:14:09.121Z,0.60
2023-02-25T01:16:40.261Z,0.63
2023-02-25T01:19:14.912Z,0.40
2023-02-25T01:21:48.504Z,0.73
2023-02-25T01:24:33.664Z,0.63
2023-02-25T01:27:05.899Z,0.50
2023-02-25T01:29:43.326Z,0.60
2023-02-25T01:32:16.110Z,0.70
2023-02-25T01:34:46.468Z,0.80
2023-02-25T01:37:17.387Z,0.60
2023-02-25T01:39:47.614Z,0.50
2023-02-25T01:42:20.620Z,0.75
2023-02-25T01:45:21.105Z,0.60
2023-02-25T01:47:56.920Z,0.50
2023-02-25T01:50:33.534Z,0.60
2023-02-25T01:53:08.336Z,0.77
2023-02-25T01:55:41.505Z,0.57
2023-02-25T01:58:13.954Z,0.65
2023-02-25T02:00:44.621Z,0.30
2023-02-25T02:03:18.568Z,0.60
2023-02-25T02:06:17.117Z,0.63
2023-02-25T02:08:48.564Z,0.60
2023-02-25T02:11:19.353Z,0.60
2023-02-25T02:13:57.528Z,0.50
2023-02-25T02:16:48.128Z,0.50
2023-02-25T02:19:36.543Z,0.50
2023-02-25T02:22:19.905Z,0.50
2023-02-25T02:25:27.374Z,0.50
2023-02-25T02:27:57.816Z,0.50
2023-02-25T02:31:08.893Z,0.30
2023-02-25T02:33:48.989Z,0.50
2023-02-25T02:36:43.419Z,0.45
2023-02-25T02:39:50.578Z,0.50
2023-02-25T02:42:45.445Z,0.32
2023-02-25T02:45:27.517Z,0.60
2023-02-25T02:48:29.033Z,0.50
2023-02-25T02:51:03.365Z,0.50
2023-02-25T02:53:35.630Z,0.60
2023-02-25T02:56:09.489Z,0.50
2023-02-25T02:58:49.764Z,0.50
2023-02-25T03:01:49.972Z,0.40
2023-02-25T03:04:27.835Z,0.60
2023-02-25T03:07:11.881Z,0.57
2023-02-25T03:10:04.255Z,0.63
2023-02-25T03:12:35.426Z,0.50
2023-02-25T03:15:05.893Z,0.57
2023-02-25T03:17:53.251Z,0.40
2023-02-25T03:20:37.839Z,0.50
2023-02-25T03:23:14.055Z,0.28
2023-02-25T03:25:50.838Z,0.50
2023-02-25T03:28:29.695Z,0.75
2023-02-25T03:31:23.646Z,0.32
2023-02-25T03:34:06.281Z,0.47
2023-02-25T03:37:17.540Z,0.40
2023-02-25T03:39:53.389Z,0.50
2023-02-25T03:42:31.246Z,0.70
2023-02-25T03:45:05.530Z,0.80
2023-02-25T03:47:39.640Z,0.40
2023-02-25T03:50:26.112Z,0.70
2023-02-25T03:52:56.404Z,0.60
2023-02-25T03:55:27.295Z,0.52
2023-02-25T03:57:58.326Z,0.43
2023-02-25T04:00:38.920Z,0.77
2023-02-25T04:03:09.144Z,0.50
2023-02-25T04:05:39.414Z,0.50
2023-02-25T04:08:17.384Z,0.60
2023-02-25T04:10:48.218Z,0.60
2023-02-25T04:13:22.089Z,0.65
2023-02-25T04:15:53.525Z,0.57
2023-02-25T04:18:28.242Z,0.70
2023-02-25T04:20:58.704Z,0.77
2023-02-25T04:23:29.247Z,0.40
2023-02-25T04:25:59.679Z,0.60
2023-02-25T04:28:30.039Z,0.50
2023-02-25T04:31:00.498Z,0.63
2023-02-25T04:33:31.041Z,0.50
2023-02-25T04:36:01.428Z,0.50
2023-02-25T04:38:34.581Z,0.60
2023-02-25T04:41:04.887Z,0.52
2023-02-25T04:43:35.100Z,0.75
2023-02-25T04:46:05.449Z,0.75
2023-02-25T04:48:35.806Z,1.05
2023-02-25T04:51:06.753Z,1.27
2023-02-25T04:53:37.906Z,0.80
2023-02-25T04:56:10.496Z,0.95
2023-02-25T04:58:41.625Z,0.80
2023-02-25T05:01:12.550Z,0.60
2023-02-25T05:03:43.939Z,0.70
2023-02-25T05:06:14.285Z,0.60
2023-02-25T05:08:44.717Z,0.68
2023-02-25T05:11:14.889Z,0.82
2023-02-25T05:13:45.099Z,0.68
2023-02-25T05:16:18.678Z,0.60
2023-02-25T05:18:50.194Z,0.85
2023-02-25T05:21:24.172Z,0.55
2023-02-25T05:23:56.106Z,0.60
2023-02-25T05:26:28.416Z,0.65
2023-02-25T05:29:00.251Z,0.77
2023-02-25T05:31:35.475Z,0.60
2023-02-25T05:34:06.266Z,0.75
2023-02-25T05:36:36.642Z,0.70
2023-02-25T05:39:08.268Z,0.50
2023-02-25T05:41:38.524Z,0.55
2023-02-25T05:44:09.538Z,0.70
2023-02-25T05:46:39.840Z,0.50
2023-02-25T05:49:10.919Z,1.05
2023-02-25T05:51:41.179Z,0.80
2023-02-25T05:54:11.461Z,0.68
2023-02-25T05:56:42.626Z,0.60
2023-02-25T05:59:14.449Z,0.50
2023-02-25T06:01:44.776Z,0.60
2023-02-25T06:04:15.361Z,0.70
2023-02-25T06:06:51.883Z,0.82
2023-02-25T06:09:23.262Z,0.70
2023-02-25T06:11:53.446Z,0.60
2023-02-25T06:14:24.075Z,0.80
2023-02-25T06:16:58.304Z,0.73
2023-02-25T06:19:29.090Z,0.70
2023-02-25T06:21:59.296Z,0.68
2023-02-25T06:24:29.611Z,0.85
2023-02-25T06:26:59.846Z,0.75
2023-02-25T06:29:30.326Z,0.70
2023-02-25T06:32:00.699Z,0.77
2023-02-25T06:34:36.469Z,0.60
2023-02-25T06:37:07.012Z,0.70
2023-02-25T06:39:37.756Z,0.68
2023-02-25T06:42:08.048Z,0.85
2023-02-25T06:44:38.436Z,0.60
2023-02-25T06:47:08.762Z,0.60
2023-02-25T06:49:39.107Z,0.70
2023-02-25T06:52:09.460Z,0.82
2023-02-25T06:54:39.887Z,0.90
2023-02-25T06:57:10.184Z,0.77
2023-02-25T06:59:40.863Z,0.50
2023-02-25T07:02:14.958Z,0.50
2023-02-25T07:04:45.277Z,0.65
2023-02-25T07:07:15.546Z,0.60
2023-02-25T07:09:45.801Z,0.60
2023-02-25T07:12:16.279Z,0.70
2023-02-25T07:14:47.060Z,0.73
2023-02-25T07:17:17.259Z,0.70
2023-02-25T07:19:47.559Z,0.80
2023-02-25T07:22:18.967Z,0.60
2023-02-25T07:24:49.306Z,0.60
2023-02-25T07:27:19.648Z,0.60
2023-02-25T07:29:49.938Z,0.52
2023-02-25T07:32:20.353Z,0.90
2023-02-25T07:34:50.846Z,0.60
2023-02-25T07:37:21.083Z,0.73
2023-02-25T07:39:51.519Z,0.63
2023-02-25T07:42:21.715Z,0.63
2023-02-25T07:44:53.523Z,0.70
2023-02-25T07:47:24.101Z,0.63
2023-02-25T07:49:54.575Z,0.65
2023-02-25T07:52:24.816Z,0.80
2023-02-25T07:54:55.023Z,0.68
2023-02-25T07:57:25.249Z,0.50
2023-02-25T07:59:55.665Z,0.68
2023-02-25T08:02:26.246Z,0.40
2023-02-25T08:04:56.595Z,0.70
2023-02-25T08:07:27.810Z,0.65
2023-02-25T08:09:58.189Z,0.63
2023-02-25T08:12:28.554Z,0.43
2023-02-25T08:15:01.970Z,0.50
2023-02-25T08:17:35.745Z,0.50
2023-02-25T08:20:07.453Z,0.70
2023-02-25T08:22:38.795Z,0.60
2023-02-25T08:25:09.480Z,0.65
2023-02-25T08:27:40.859Z,0.68
2023-02-25T08:30:11.840Z,0.50
2023-02-25T08:32:43.697Z,0.73
2023-02-25T08:35:14.362Z,0.55
2023-02-25T08:37:47.164Z,0.43
2023-02-25T08:40:19.836Z,0.60
2023-02-25T08:42:50.431Z,0.60
2023-02-25T08:45:20.872Z,0.55
2023-02-25T08:47:51.409Z,0.50
2023-02-25T08:50:21.834Z,0.40
2023-02-25T08:52:52.739Z,0.50
2023-02-25T08:55:26.344Z,0.60
2023-02-25T08:57:56.958Z,0.60
2023-02-25T09:00:27.538Z,0.52
2023-02-25T09:02:57.791Z,0.60
2023-02-25T09:05:28.595Z,0.65
2023-02-25T09:08:00.382Z,0.50
2023-02-25T09:10:38.655Z,0.60
2023-02-25T09:13:15.527Z,0.80
2023-02-25T09:15:46.100Z,0.70
2023-02-25T09:18:16.331Z,0.60
2023-02-25T09:20:51.406Z,0.55
2023-02-25T09:23:21.805Z,0.52
2023-02-25T09:25:55.395Z,0.60
2023-02-25T09:28:25.772Z,0.70
2023-02-25T09:30:56.205Z,0.73
2023-02-25T09:33:29.389Z,0.65
2023-02-25T09:36:10.667Z,0.55
2023-02-25T09:38:42.994Z,0.60
2023-02-25T09:41:37.536Z,0.45
2023-02-25T09:44:18.924Z,0.60
2023-02-25T09:47:07.359Z,0.50
2023-02-25T09:49:53.439Z,0.50
2023-02-25T09:52:33.624Z,0.65
2023-02-25T09:55:24.938Z,0.60
2023-02-25T09:58:27.471Z,0.60
2023-02-25T10:01:14.193Z,0.70
2023-02-25T10:04:16.574Z,0.70
2023-02-25T10:06:52.520Z,0.57
2023-02-25T10:09:40.820Z,0.55
2023-02-25T10:12:18.355Z,0.55
2023-02-25T10:15:10.688Z,0.50
2023-02-25T10:18:08.360Z,0.80
2023-02-25T10:20:45.742Z,0.75
2023-02-25T10:23:40.489Z,0.70
2023-02-25T10:26:15.028Z,0.70
2023-02-25T10:28:49.060Z,0.80
2023-02-25T10:31:22.494Z,1.10
2023-02-25T10:33:55.515Z,0.70
2023-02-25T10:36:50.171Z,0.98
2023-02-25T10:39:20.665Z,1.00
2023-02-25T10:41:51.220Z,1.20
2023-02-25T10:44:23.513Z,0.88
2023-02-25T10:47:04.636Z,1.30
2023-02-25T10:49:40.019Z,1.30
2023-02-25T10:52:21.707Z,1.35
2023-02-25T10:54:56.510Z,0.80
2023-02-25T10:57:38.572Z,0.90
2023-02-25T11:00:25.160Z,1.17
2023-02-25T11:02:55.755Z,1.10
2023-02-25T11:05:45.232Z,1.10
2023-02-25T11:08:34.929Z,1.10
2023-02-25T11:11:31.887Z,1.10
2023-02-25T11:14:07.164Z,1.15
2023-02-25T11:16:40.566Z,1.48
2023-02-25T11:19:33.883Z,1.50
2023-02-25T11:22:32.684Z,1.48
2023-02-25T11:25:05.792Z,1.35
2023-02-25T11:27:40.158Z,1.52
2023-02-25T11:30:16.554Z,1.30
2023-02-25T11:32:55.728Z,1.45
2023-02-25T11:35:33.588Z,1.10
2023-02-25T11:38:30.073Z,1.23
2023-02-25T11:41:00.667Z,1.50
2023-02-25T11:43:46.200Z,1.30
2023-02-25T11:46:25.325Z,1.52
2023-02-25T11:49:12.161Z,1.40
2023-02-25T11:52:05.045Z,1.33
2023-02-25T11:55:14.333Z,1.50
2023-02-25T11:58:14.190Z,1.67
2023-02-25T12:00:59.112Z,1.40
2023-02-25T12:04:13.802Z,1.80
2023-02-25T12:07:05.105Z,1.60
2023-02-25T12:09:35.467Z,1.83
2023-02-25T12:12:43.094Z,1.73
2023-02-25T12:15:22.944Z,1.77
2023-02-25T12:18:07.778Z,1.33
2023-02-25T12:21:02.148Z,1.55
2023-02-25T12:23:43.315Z,1.27
2023-02-25T12:26:26.619Z,1.50
2023-02-25T12:29:24.099Z,1.60
2023-02-25T12:32:19.494Z,1.80
2023-02-25T12:35:26.495Z,1.33
2023-02-25T12:38:34.147Z,1.90
2023-02-25T12:41:16.313Z,1.83
2023-02-25T12:44:14.944Z,1.50
2023-02-25T12:47:31.805Z,1.70
2023-02-25T12:50:36.116Z,1.48
2023-02-25T12:53:28.734Z,1.67
2023-02-25T12:56:17.142Z,1.60
2023-02-25T12:58:59.099Z,1.48
2023-02-25T13:02:19.208Z,1.50
2023-02-25T13:05:09.655Z,1.58
2023-02-25T13:07:50.932Z,2.00
2023-02-25T13:10:38.945Z,1.70
2023-02-25T13:13:50.302Z,1.77
2023-02-25T13:16:56.129Z,1.55
2023-02-25T13:20:02.286Z,1.33
2023-02-25T13:23:05.604Z,1.77
2023-02-25T13:25:59.792Z,1.70
2023-02-25T13:28:47.174Z,1.60
2023-02-25T13:31:43.765Z,1.65
2023-02-25T13:34:47.421Z,1.60
2023-02-25T13:37:39.595Z,1.48
2023-02-25T13:40:28.223Z,1.50
2023-02-25T13:43:14.025Z,1.33
2023-02-25T13:45:44.309Z,1.40
2023-02-25T13:48:36.265Z,1.65
2023-02-25T13:51:26.222Z,1.77
2023-02-25T13:54:22.086Z,1.30
2023-02-25T13:57:07.437Z,1.38
2023-02-25T14:00:06.593Z,1.55
2023-02-25T14:02:42.576Z,1.20
2023-02-25T14:05:31.165Z,1.50
2023-02-25T14:08:11.988Z,1.40
2023-02-25T14:11:04.888Z,1.30
2023-02-25T14:14:02.228Z,1.60
2023-02-25T14:17:16.392Z,1.55
2023-02-25T14:20:23.002Z,1.40
2023-02-25T14:22:59.125Z,1.67
2023-02-25T14:25:40.395Z,1.30
2023-02-25T14:28:27.673Z,1.20
2023-02-25T14:31:10.183Z,1.10
2023-02-25T14:34:13.976Z,1.35
2023-02-25T14:37:11.506Z,1.50
2023-02-25T14:40:02.460Z,1.45
2023-02-25T14:42:53.312Z,1.30
2023-02-25T14:45:37.880Z,1.65
2023-02-25T14:48:27.756Z,1.27
2023-02-25T14:51:16.359Z,1.42
2023-02-25T14:53:52.408Z,1.45
2023-02-25T14:56:22.586Z,1.00
2023-02-25T14:59:19.477Z,1.67
2023-02-25T15:02:01.813Z,1.48
2023-02-25T15:05:07.482Z,1.30
2023-02-25T15:08:06.789Z,1.58
2023-02-25T15:11:13.465Z,1.58
2023-02-25T15:14:12.822Z,1.65
2023-02-25T15:17:03.922Z,1.60
2023-02-25T15:19:46.461Z,1.35
2023-02-25T15:22:28.718Z,1.58
2023-02-25T15:25:17.072Z,1.30
2023-02-25T15:27:56.252Z,1.70
2023-02-25T15:30:28.562Z,1.40
2023-02-25T15:33:25.658Z,1.45
2023-02-25T15:35:59.261Z,1.55
2023-02-25T15:39:01.656Z,1.50
2023-02-25T15:41:38.061Z,1.33
2023-02-25T15:44:11.187Z,1.70
2023-02-25T15:46:46.048Z,1.27
2023-02-25T15:49:34.808Z,1.65
2023-02-25T15:52:07.096Z,1.40
2023-02-25T15:54:40.291Z,1.30
2023-02-25T15:57:13.310Z,1.33
2023-02-25T15:59:50.674Z,1.63
2023-02-25T16:02:36.607Z,1.60
2023-02-25T16:05:15.230Z,1.67
2023-02-25T16:07:49.349Z,1.35
2023-02-25T16:10:33.698Z,1.10
2023-02-25T16:13:04.795Z,1.27
2023-02-25T16:15:50.595Z,1.42
2023-02-25T16:18:29.729Z,1.25
2023-02-25T16:21:23.628Z,1.27
2023-02-25T16:23:55.027Z,1.55
2023-02-25T16:26:36.752Z,1.50
2023-02-25T16:29:34.143Z,1.33
2023-02-25T16:32:07.251Z,1.63
2023-02-25T16:34:47.817Z,1.23
2023-02-25T16:37:26.647Z,1.67
2023-02-25T16:39:57.218Z,1.48
2023-02-25T16:42:28.309Z,1.40
2023-02-25T16:45:06.935Z,1.20
2023-02-25T16:47:41.333Z,1.30
2023-02-25T16:50:18.416Z,1.10
2023-02-25T16:52:50.989Z,1.50
2023-02-25T16:55:25.813Z,1.50
2023-02-25T16:58:23.547Z,1.50
2023-02-25T17:01:05.894Z,1.35
2023-02-25T17:03:51.244Z,1.30
2023-02-25T17:06:23.165Z,1.30
2023-02-25T17:08:53.719Z,1.40
2023-02-25T17:11:27.152Z,1.08
2023-02-25T17:14:00.357Z,1.20
2023-02-25T17:16:40.503Z,1.33
2023-02-25T17:19:13.335Z,1.15
2023-02-25T17:21:49.006Z,1.25
2023-02-25T17:24:23.367Z,1.33
2023-02-25T17:26:55.586Z,1.70
2023-02-25T17:29:38.589Z,1.13
2023-02-25T17:32:29.841Z,1.40
2023-02-25T17:35:04.139Z,1.38
2023-02-25T17:37:35.674Z,1.70
2023-02-25T17:40:10.123Z,1.50
2023-02-25T17:42:41.564Z,1.40
2023-02-25T17:45:44.225Z,1.10
2023-02-25T17:48:24.971Z,1.13
2023-02-25T17:51:09.421Z,1.10
2023-02-25T17:53:50.534Z,1.10
2023-02-25T17:56:27.004Z,1.40
2023-02-25T17:59:30.305Z,1.40
2023-02-25T18:02:02.981Z,1.40
2023-02-25T18:04:42.834Z,1.30
2023-02-25T18:07:31.174Z,1.45
2023-02-25T18:10:02.720Z,1.40
2023-02-25T18:12:35.403Z,1.48
2023-02-25T18:15:21.763Z,1.40
2023-02-25T18:17:58.104Z,1.30
2023-02-25T18:20:35.505Z,1.65
2023-02-25T18:23:16.350Z,1.83
2023-02-25T18:25:53.554Z,1.20
2023-02-25T18:28:25.125Z,1.50
2023-02-25T18:30:55.704Z,1.10
2023-02-25T18:33:25.946Z,1.50
2023-02-25T18:35:57.371Z,1.05
2023-02-25T18:38:34.812Z,1.30
2023-02-25T18:41:07.820Z,1.30
2023-02-25T18:43:43.432Z,1.58
2023-02-25T18:46:14.856Z,1.25
2023-02-25T18:48:45.026Z,1.30
2023-02-25T18:51:18.751Z,1.30
2023-02-25T18:53:49.281Z,1.20
2023-02-25T18:56:20.140Z,1.25
2023-02-25T18:58:50.640Z,1.17
2023-02-25T19:01:26.169Z,1.25
2023-02-25T19:04:00.986Z,1.55
2023-02-25T19:06:33.677Z,1.25
2023-02-25T19:09:03.961Z,1.38
2023-02-25T19:11:38.388Z,1.17
2023-02-25T19:14:09.979Z,1.08
2023-02-25T19:16:40.244Z,1.25
2023-02-25T19:19:10.535Z,1.23
2023-02-25T19:21:40.748Z,1.23
2023-02-25T19:24:14.241Z,1.38
2023-02-25T19:26:45.748Z,1.10
2023-02-25T19:29:15.966Z,1.20
2023-02-25T19:31:46.392Z,1.48
2023-02-25T19:34:17.617Z,1.48
2023-02-25T19:36:47.826Z,1.30
2023-02-25T19:39:19.165Z,1.38
2023-02-25T19:41:49.649Z,1.15
2023-02-25T19:44:20.142Z,1.27
2023-02-25T19:46:50.377Z,1.33
2023-02-25T19:49:20.606Z,1.20
2023-02-25T19:51:50.805Z,1.10
2023-02-25T19:54:22.995Z,1.10
2023-02-25T19:56:54.474Z,1.40
2023-02-25T19:59:24.977Z,1.00
2023-02-25T20:01:55.256Z,1.10
2023-02-25T20:04:25.525Z,1.17
2023-02-25T20:06:55.716Z,1.17
2023-02-25T20:09:26.004Z,0.90
2023-02-25T20:11:56.244Z,1.30
2023-02-25T20:14:29.572Z,1.50
2023-02-25T20:17:01.207Z,1.33
2023-02-25T20:19:34.456Z,1.10
2023-02-25T20:22:07.288Z,1.50
2023-02-25T20:24:38.100Z,1.23
2023-02-25T20:27:08.299Z,1.17
2023-02-25T20:29:38.508Z,1.00
2023-02-25T20:32:08.872Z,1.35
2023-02-25T20:34:39.506Z,1.08
2023-02-25T20:37:15.019Z,1.50
2023-02-25T20:39:57.557Z,1.38
2023-02-25T20:42:31.156Z,1.30
2023-02-25T20:45:02.490Z,1.08
2023-02-25T20:47:38.921Z,1.38
2023-02-25T20:50:10.676Z,1.20
2023-02-25T20:52:41.297Z,1.10
2023-02-25T20:55:12.227Z,1.30
2023-02-25T20:57:42.527Z,1.40
2023-02-25T21:00:16.917Z,1.25
2023-02-25T21:02:47.169Z,1.20
2023-02-25T21:05:17.683Z,1.15
2023-02-25T21:07:47.991Z,1.20
2023-02-25T21:10:18.229Z,1.50
2023-02-25T21:12:48.634Z,1.15
2023-02-25T21:15:19.055Z,1.60
2023-02-25T21:17:49.338Z,0.93
2023-02-25T21:20:19.626Z,1.27
2023-02-25T21:22:50.747Z,1.02
2023-02-25T21:25:21.062Z,1.42
2023-02-25T21:27:51.346Z,1.00
2023-02-25T21:30:21.829Z,1.38
2023-02-25T21:32:52.206Z,1.40
2023-02-25T21:35:26.825Z,1.20
2023-02-25T21:37:57.059Z,1.17
2023-02-25T21:40:28.491Z,1.40
2023-02-25T21:42:59.712Z,1.20
2023-02-25T21:45:30.929Z,1.00
2023-02-25T21:48:01.125Z,1.40
2023-02-25T21:50:31.666Z,1.33
2023-02-25T21:53:02.720Z,1.48
2023-02-25T21:55:32.938Z,1.13
2023-02-25T21:58:03.124Z,1.05
2023-02-25T22:00:33.951Z,1.15
2023-02-25T22:03:05.413Z,1.10
2023-02-25T22:05:36.277Z,1.30
2023-02-25T22:08:08.337Z,1.00
2023-02-25T22:10:38.704Z,1.13
2023-02-25T22:13:09.967Z,1.20
2023-02-25T22:15:40.556Z,1.10
2023-02-25T22:18:10.857Z,1.23
2023-02-25T22:20:41.101Z,1.10
2023-02-25T22:23:11.322Z,1.27
2023-02-25T22:25:45.334Z,1.00
2023-02-25T22:28:15.571Z,1.10
2023-02-25T22:30:49.311Z,1.40
2023-02-25T22:33:19.598Z,1.17
2023-02-25T22:36:01.237Z,1.00
2023-02-25T22:38:38.643Z,1.10
2023-02-25T22:41:14.119Z,1.15
2023-02-25T22:43:44.786Z,1.08
2023-02-25T22:46:16.597Z,1.00
2023-02-25T22:48:49.348Z,1.27
2023-02-25T22:51:35.440Z,1.13
2023-02-25T22:54:06.443Z,1.27
2023-02-25T22:56:37.237Z,1.42
2023-02-25T22:59:07.795Z,1.30
2023-02-25T23:01:38.823Z,1.10
2023-02-25T23:04:12.381Z,1.15
2023-02-25T23:06:44.985Z,1.17
2023-02-25T23:09:16.819Z,1.10
2023-02-25T23:11:47.674Z,1.30
2023-02-25T23:14:18.055Z,1.15
2023-02-25T23:16:49.403Z,1.40
2023-02-25T23:19:21.358Z,1.60
2023-02-25T23:21:51.604Z,1.35
2023-02-25T23:24:22.040Z,1.10
2023-02-25T23:26:58.436Z,1.50
2023-02-25T23:29:28.671Z,1.23
2023-02-25T23:31:59.160Z,0.93
2023-02-25T23:34:29.464Z,1.10
2023-02-25T23:37:00.085Z,1.23
2023-02-25T23:39:30.351Z,1.17
2023-02-25T23:42:01.221Z,1.13
2023-02-25T23:44:31.533Z,1.17
2023-02-25T23:47:01.970Z,1.10
2023-02-25T23:49:32.293Z,1.00
2023-02-25T23:52:02.570Z,1.40
2023-02-25T23:54:32.871Z,1.38
2023-02-25T23:57:03.530Z,1.05
2023-02-25T23:59:34.193Z,0.98
